createdAt,value
2022-07-27T00:00:18.433Z,101239.63
2022-07-27T00:01:21.976Z,101246.44
2022-07-27T00:02:24.226Z,101245.63
2022-07-27T00:03:27.306Z,101250.78
2022-07-27T00:04:30.420Z,101250.56
2022-07-27T00:05:32.446Z,101239.81
2022-07-27T00:06:36.171Z,101244.16
2022-07-27T00:07:38.269Z,101248.72
2022-07-27T00:08:43.125Z,101239.38
2022-07-27T00:09:45.897Z,101242.91
2022-07-27T00:10:49.938Z,101244.75
2022-07-27T00:11:53.259Z,101244.53
2022-07-27T00:12:55.436Z,101240.00
2022-07-27T00:14:00.180Z,101244.31
2022-07-27T00:15:02.509Z,101244.31
2022-07-27T00:16:06.722Z,101249.47
2022-07-27T00:17:11.766Z,101246.78
2022-07-27T00:18:14.209Z,101243.09
2022-07-27T00:19:17.546Z,101238.50
2022-07-27T00:20:20.050Z,101242.88
2022-07-27T00:21:30.169Z,101241.00
2022-07-27T00:22:32.397Z,101235.63
2022-07-27T00:23:36.225Z,101237.25
2022-07-27T00:24:38.244Z,101231.03
2022-07-27T00:25:41.282Z,101236.44
2022-07-27T00:26:43.836Z,101235.63
2022-07-27T00:27:47.064Z,101230.03
2022-07-27T00:28:50.006Z,101227.34
2022-07-27T00:29:54.589Z,101227.34
2022-07-27T00:30:57.150Z,101231.69
2022-07-27T00:32:00.738Z,101229.00
2022-07-27T00:33:03.770Z,101226.31
2022-07-27T00:34:06.834Z,101231.47
2022-07-27T00:35:09.914Z,101234.38
2022-07-27T00:36:13.516Z,101232.72
2022-07-27T00:37:15.786Z,101230.25
2022-07-27T00:38:18.807Z,101230.25
2022-07-27T00:39:20.908Z,101229.41
2022-07-27T00:40:23.981Z,101238.31
2022-07-27T00:41:26.032Z,101224.25
2022-07-27T00:42:29.934Z,101224.03
2022-07-27T00:43:32.067Z,101236.66
2022-07-27T00:44:35.626Z,101237.69
2022-07-27T00:45:39.233Z,101243.88
2022-07-27T00:46:42.283Z,101243.88
2022-07-27T00:47:44.787Z,101237.69
2022-07-27T00:48:47.927Z,101234.19
2022-07-27T00:49:50.175Z,101236.03
2022-07-27T00:50:56.350Z,101235.22
2022-07-27T00:51:59.506Z,101230.88
2022-07-27T00:53:04.893Z,101235.44
2022-07-27T00:54:07.998Z,101232.75
2022-07-27T00:55:10.304Z,101232.75
2022-07-27T00:56:14.117Z,101238.13
2022-07-27T00:57:16.960Z,101243.53
2022-07-27T00:58:20.281Z,101227.38
2022-07-27T00:59:23.032Z,101234.63
2022-07-27T01:00:26.598Z,101242.06
2022-07-27T01:01:30.971Z,101239.38
2022-07-27T01:02:34.586Z,101238.31
2022-07-27T01:03:39.852Z,101233.16
2022-07-27T01:04:43.353Z,101235.63
2022-07-27T01:05:49.926Z,101233.78
2022-07-27T01:06:53.567Z,101231.94
2022-07-27T01:07:56.091Z,101234.41
2022-07-27T01:09:14.241Z,101235.22
2022-07-27T01:10:18.500Z,101231.50
2022-07-27T01:11:20.725Z,101226.94
2022-07-27T01:12:24.743Z,101225.06
2022-07-27T01:13:27.891Z,101226.72
2022-07-27T01:14:30.204Z,101222.19
2022-07-27T01:15:35.404Z,101226.50
2022-07-27T01:16:41.701Z,101224.66
2022-07-27T01:17:44.877Z,101223.63
2022-07-27T01:18:47.931Z,101226.31
2022-07-27T01:19:50.064Z,101227.94
2022-07-27T01:20:53.149Z,101235.84
2022-07-27T01:21:56.588Z,101225.25
2022-07-27T01:22:59.804Z,101226.94
2022-07-27T01:24:02.236Z,101232.31
2022-07-27T01:25:05.939Z,101221.56
2022-07-27T01:26:08.023Z,101230.63
2022-07-27T01:27:11.138Z,101227.53
2022-07-27T01:28:14.345Z,101232.94
2022-07-27T01:29:16.412Z,101241.00
2022-07-27T01:30:30.376Z,101230.22
2022-07-27T01:31:32.740Z,101231.88
2022-07-27T01:32:35.737Z,101233.50
2022-07-27T01:33:38.798Z,101233.50
2022-07-27T01:34:40.894Z,101238.69
2022-07-27T01:35:44.029Z,101235.19
2022-07-27T01:36:46.197Z,101236.00
2022-07-27T01:37:50.565Z,101235.19
2022-07-27T01:38:52.650Z,101229.78
2022-07-27T01:39:55.694Z,101233.50
2022-07-27T01:40:58.010Z,101226.28
2022-07-27T01:42:02.429Z,101233.50
2022-07-27T01:43:05.288Z,101222.16
2022-07-27T01:44:08.399Z,101224.84
2022-07-27T01:45:10.567Z,101224.84
2022-07-27T01:46:13.837Z,101221.31
2022-07-27T01:47:15.995Z,101226.72
2022-07-27T01:48:19.026Z,101225.06
2022-07-27T01:49:21.346Z,101213.47
2022-07-27T01:50:24.604Z,101216.16
2022-07-27T01:51:26.659Z,101224.03
2022-07-27T01:52:29.765Z,101216.16
2022-07-27T01:53:33.247Z,101221.56
2022-07-27T01:54:36.294Z,101223.19
2022-07-27T01:55:39.142Z,101220.50
2022-07-27T01:56:42.839Z,101219.88
2022-07-27T01:57:44.883Z,101212.88
2022-07-27T01:58:48.093Z,101221.13
2022-07-27T01:59:50.206Z,101221.97
2022-07-27T02:00:53.971Z,101216.78
2022-07-27T02:01:56.508Z,101218.66
2022-07-27T02:02:59.688Z,101225.06
2022-07-27T02:04:01.778Z,101213.72
2022-07-27T02:05:05.752Z,101217.41
2022-07-27T02:06:07.840Z,101220.34
2022-07-27T02:07:12.341Z,101210.84
2022-07-27T02:08:14.528Z,101215.59
2022-07-27T02:09:20.143Z,101213.34
2022-07-27T02:10:22.991Z,101217.91
2022-07-27T02:11:43.662Z,101211.06
2022-07-27T02:12:45.656Z,101208.81
2022-07-27T02:13:49.845Z,101215.25
2022-07-27T02:14:52.138Z,101201.19
2022-07-27T02:15:58.029Z,101211.31
2022-07-27T02:17:00.409Z,101217.75
2022-07-27T02:18:03.464Z,101207.44
2022-07-27T02:19:25.463Z,101206.81
2022-07-27T02:20:31.002Z,101212.19
2022-07-27T02:21:33.420Z,101204.56
2022-07-27T02:22:36.970Z,101207.25
2022-07-27T02:23:40.399Z,101205.59
2022-07-27T02:24:44.811Z,101213.66
2022-07-27T02:25:46.865Z,101213.03
2022-07-27T02:26:49.865Z,101213.44
2022-07-27T02:27:51.890Z,101215.31
2022-07-27T02:28:54.859Z,101213.44
2022-07-27T02:29:58.053Z,101218.81
2022-07-27T02:31:01.138Z,101221.28
2022-07-27T02:32:03.480Z,101218.41
2022-07-27T02:33:06.785Z,101224.81
2022-07-27T02:34:08.808Z,101218.41
2022-07-27T02:35:19.653Z,101220.25
2022-07-27T02:36:23.335Z,101220.06
2022-07-27T02:37:25.439Z,101225.44
2022-07-27T02:38:28.560Z,101226.25
2022-07-27T02:39:30.644Z,101219.22
2022-07-27T02:40:35.240Z,101220.06
2022-07-27T02:41:37.237Z,101224.38
2022-07-27T02:42:40.254Z,101219.00
2022-07-27T02:43:42.253Z,101226.25
2022-07-27T02:44:45.666Z,101219.00
2022-07-27T02:45:48.474Z,101218.19
2022-07-27T02:46:52.055Z,101220.88
2022-07-27T02:47:54.248Z,101217.16
2022-07-27T02:48:57.445Z,101225.22
2022-07-27T02:49:59.518Z,101224.16
2022-07-27T02:51:02.918Z,101226.84
2022-07-27T02:52:05.986Z,101224.16
2022-07-27T02:53:08.995Z,101223.97
2022-07-27T02:54:10.978Z,101229.34
2022-07-27T02:55:14.175Z,101222.91
2022-07-27T02:56:18.562Z,101221.28
2022-07-27T02:57:20.993Z,101217.75
2022-07-27T02:58:24.368Z,101221.28
2022-07-27T02:59:26.554Z,101225.81
2022-07-27T03:00:29.713Z,101223.97
2022-07-27T03:01:31.906Z,101224.16
2022-07-27T03:02:34.920Z,101225.81
2022-07-27T03:03:38.955Z,101218.78
2022-07-27T03:04:41.065Z,101225.00
2022-07-27T03:05:44.161Z,101217.16
2022-07-27T03:06:46.265Z,101213.41
2022-07-27T03:07:49.622Z,101221.47
2022-07-27T03:08:51.780Z,101222.53
2022-07-27T03:09:54.842Z,101219.84
2022-07-27T03:10:56.967Z,101211.75
2022-07-27T03:12:01.434Z,101210.13
2022-07-27T03:13:03.640Z,101219.22
2022-07-27T03:14:06.815Z,101216.53
2022-07-27T03:15:10.221Z,101219.22
2022-07-27T03:16:13.314Z,101220.06
2022-07-27T03:17:15.785Z,101213.84
2022-07-27T03:18:19.009Z,101214.88
2022-07-27T03:19:21.546Z,101214.28
2022-07-27T03:20:25.045Z,101213.44
2022-07-27T03:21:27.068Z,101217.19
2022-07-27T03:22:32.558Z,101216.34
2022-07-27T03:23:35.607Z,101212.03
2022-07-27T03:24:37.687Z,101215.72
2022-07-27T03:25:40.964Z,101208.94
2022-07-27T03:26:43.028Z,101215.34
2022-07-27T03:27:47.537Z,101220.13
2022-07-27T03:28:49.566Z,101231.09
2022-07-27T03:29:52.622Z,101224.25
2022-07-27T03:30:54.715Z,101220.97
2022-07-27T03:31:57.819Z,101222.22
2022-07-27T03:32:59.892Z,101221.38
2022-07-27T03:34:02.888Z,101227.81
2022-07-27T03:35:05.951Z,101221.81
2022-07-27T03:36:09.154Z,101222.88
2022-07-27T03:37:11.258Z,101225.75
2022-07-27T03:38:14.298Z,101230.31
2022-07-27T03:39:16.972Z,101225.16
2022-07-27T03:40:20.172Z,101228.88
2022-07-27T03:41:22.275Z,101227.44
2022-07-27T03:42:25.247Z,101225.78
2022-07-27T03:43:29.434Z,101230.56
2022-07-27T03:44:33.492Z,101231.38
2022-07-27T03:45:36.012Z,101227.25
2022-07-27T03:46:39.219Z,101227.25
2022-07-27T03:47:41.254Z,101232.84
2022-07-27T03:48:44.302Z,101229.31
2022-07-27T03:49:47.730Z,101227.88
2022-07-27T03:50:49.802Z,101231.38
2022-07-27T03:51:52.859Z,101228.06
2022-07-27T03:52:54.891Z,101224.59
2022-07-27T03:53:58.786Z,101234.72
2022-07-27T03:55:00.794Z,101241.94
2022-07-27T03:56:03.887Z,101234.09
2022-07-27T03:57:06.030Z,101235.94
2022-07-27T03:58:09.087Z,101230.56
2022-07-27T03:59:12.997Z,101231.84
2022-07-27T04:00:17.548Z,101226.47
2022-07-27T04:01:19.917Z,101227.47
2022-07-27T04:02:23.044Z,101230.38
2022-07-27T04:03:25.591Z,101236.81
2022-07-27T04:04:28.860Z,101223.38
2022-07-27T04:05:32.036Z,101232.47
2022-07-27T04:06:34.268Z,101223.59
2022-07-27T04:07:37.863Z,101228.94
2022-07-27T04:08:39.935Z,101227.28
2022-07-27T04:09:42.982Z,101235.16
2022-07-27T04:10:48.254Z,101222.97
2022-07-27T04:11:51.618Z,101226.47
2022-07-27T04:12:53.945Z,101226.69
2022-07-27T04:13:57.413Z,101229.38
2022-07-27T04:15:00.964Z,101229.38
2022-07-27T04:16:04.802Z,101228.53
2022-07-27T04:17:06.903Z,101223.16
2022-07-27T04:18:09.985Z,101232.06
2022-07-27T04:19:12.361Z,101227.72
2022-07-27T04:20:15.962Z,101231.03
2022-07-27T04:21:17.991Z,101220.28
2022-07-27T04:22:20.956Z,101228.34
2022-07-27T04:23:23.098Z,101231.84
2022-07-27T04:24:26.290Z,101228.13
2022-07-27T04:25:28.523Z,101228.94
2022-07-27T04:26:31.902Z,101232.25
2022-07-27T04:27:34.010Z,101235.75
2022-07-27T04:28:37.125Z,101235.53
2022-07-27T04:29:39.213Z,101234.53
2022-07-27T04:30:43.689Z,101238.03
2022-07-27T04:31:45.844Z,101243.19
2022-07-27T04:32:49.043Z,101238.41
2022-07-27T04:33:51.261Z,101236.56
2022-07-27T04:34:54.264Z,101245.47
2022-07-27T04:35:56.302Z,101240.94
2022-07-27T04:36:59.454Z,101239.03
2022-07-27T04:38:01.531Z,101245.25
2022-07-27T04:39:04.969Z,101243.97
2022-07-27T04:40:08.511Z,101242.13
2022-07-27T04:41:11.664Z,101240.91
2022-07-27T04:42:13.682Z,101237.16
2022-07-27T04:43:16.696Z,101245.63
2022-07-27T04:44:20.402Z,101240.03
2022-07-27T04:45:23.667Z,101241.50
2022-07-27T04:46:28.316Z,101240.22
2022-07-27T04:47:30.628Z,101240.84
2022-07-27T04:48:34.178Z,101235.88
2022-07-27T04:49:36.215Z,101244.34
2022-07-27T04:50:42.552Z,101238.53
2022-07-27T04:51:46.013Z,101244.53
2022-07-27T04:52:48.542Z,101237.06
2022-07-27T04:53:53.642Z,101245.75
2022-07-27T04:55:00.599Z,101243.66
2022-07-27T04:56:04.864Z,101235.38
2022-07-27T04:57:07.138Z,101244.06
2022-07-27T04:58:10.458Z,101241.16
2022-07-27T04:59:13.022Z,101237.41
2022-07-27T05:00:16.961Z,101239.94
2022-07-27T05:01:19.174Z,101235.34
2022-07-27T05:02:24.096Z,101245.66
2022-07-27T05:03:26.195Z,101236.59
2022-07-27T05:04:29.533Z,101242.59
2022-07-27T05:05:32.869Z,101236.16
2022-07-27T05:06:35.944Z,101239.47
2022-07-27T05:07:38.048Z,101242.75
2022-07-27T05:08:41.061Z,101235.28
2022-07-27T05:09:43.436Z,101235.09
2022-07-27T05:10:46.642Z,101242.94
2022-07-27T05:11:51.106Z,101248.09
2022-07-27T05:12:55.254Z,101240.66
2022-07-27T05:13:57.303Z,101250.34
2022-07-27T05:15:00.312Z,101246.63
2022-07-27T05:16:03.417Z,101249.09
2022-07-27T05:17:06.283Z,101243.72
2022-07-27T05:18:10.920Z,101252.16
2022-07-27T05:19:13.256Z,101249.25
2022-07-27T05:20:17.128Z,101249.06
2022-07-27T05:21:19.317Z,101249.47
2022-07-27T05:22:22.477Z,101252.56
2022-07-27T05:23:24.523Z,101262.09
2022-07-27T05:24:27.807Z,101250.03
2022-07-27T05:25:29.900Z,101258.72
2022-07-27T05:26:33.016Z,101253.75
2022-07-27T05:27:37.181Z,101257.88
2022-07-27T05:28:56.906Z,101262.00
2022-07-27T05:29:59.878Z,101268.81
2022-07-27T05:31:02.662Z,101271.28
2022-07-27T05:32:06.538Z,101263.81
2022-07-27T05:33:11.698Z,101265.25
2022-07-27T05:34:14.761Z,101273.94
2022-07-27T05:35:16.833Z,101269.97
2022-07-27T05:36:19.923Z,101268.13
2022-07-27T05:37:21.992Z,101273.50
2022-07-27T05:38:25.051Z,101274.34
2022-07-27T05:39:27.267Z,101272.22
2022-07-27T05:40:30.570Z,101276.81
2022-07-27T05:41:33.617Z,101279.50
2022-07-27T05:42:35.680Z,101274.91
2022-07-27T05:43:38.681Z,101280.13
2022-07-27T05:44:40.827Z,101272.84
2022-07-27T05:45:43.938Z,101275.31
2022-07-27T05:46:46.108Z,101283.16
2022-07-27T05:47:49.214Z,101279.44
2022-07-27T05:48:55.509Z,101288.13
2022-07-27T05:49:57.670Z,101285.00
2022-07-27T05:51:00.725Z,101286.63
2022-07-27T05:52:03.215Z,101282.94
2022-07-27T05:53:06.416Z,101281.88
2022-07-27T05:54:08.628Z,101286.19
2022-07-27T05:55:12.126Z,101287.88
2022-07-27T05:56:15.166Z,101294.09
2022-07-27T05:57:18.286Z,101295.72
2022-07-27T05:58:20.352Z,101303.59
2022-07-27T05:59:28.136Z,101306.28
2022-07-27T06:00:30.232Z,101312.72
2022-07-27T06:01:33.494Z,101314.78
2022-07-27T06:02:35.565Z,101311.50
2022-07-27T06:03:39.290Z,101315.66
2022-07-27T06:04:43.033Z,101310.09
2022-07-27T06:05:46.077Z,101299.16
2022-07-27T06:07:06.893Z,101296.28
2022-07-27T06:08:09.339Z,101294.25
2022-07-27T06:09:12.671Z,101298.22
2022-07-27T06:10:14.951Z,101299.66
2022-07-27T06:11:18.080Z,101289.97
2022-07-27T06:12:20.470Z,101299.06
2022-07-27T06:13:28.275Z,101291.81
2022-07-27T06:14:30.764Z,101307.13
2022-07-27T06:15:33.961Z,101305.88
2022-07-27T06:16:36.062Z,101302.16
2022-07-27T06:17:39.294Z,101307.94
2022-07-27T06:18:41.346Z,101304.78
2022-07-27T06:19:45.882Z,101305.19
2022-07-27T06:20:48.982Z,101310.97
2022-07-27T06:21:53.800Z,101305.75
2022-07-27T06:23:00.127Z,101310.69
2022-07-27T06:24:02.301Z,101306.53
2022-07-27T06:25:06.133Z,101305.28
2022-07-27T06:26:09.362Z,101305.66
2022-07-27T06:27:12.424Z,101300.88
2022-07-27T06:28:15.545Z,101306.88
2022-07-27T06:29:17.973Z,101306.66
2022-07-27T06:30:23.052Z,101307.28
2022-07-27T06:31:25.963Z,101308.09
2022-07-27T06:32:30.546Z,101307.06
2022-07-27T06:33:32.873Z,101306.00
2022-07-27T06:34:40.719Z,101309.31
2022-07-27T06:35:46.876Z,101304.75
2022-07-27T06:36:50.186Z,101305.78
2022-07-27T06:37:52.982Z,101301.84
2022-07-27T06:38:56.242Z,101299.97
2022-07-27T06:39:59.214Z,101313.81
2022-07-27T06:41:03.124Z,101303.88
2022-07-27T06:42:05.173Z,101299.09
2022-07-27T06:43:08.244Z,101306.50
2022-07-27T06:44:10.282Z,101302.56
2022-07-27T06:45:13.591Z,101301.28
2022-07-27T06:46:16.835Z,101300.63
2022-07-27T06:47:18.921Z,101303.69
2022-07-27T06:48:22.385Z,101301.38
2022-07-27T06:49:24.532Z,101301.31
2022-07-27T06:50:27.914Z,101302.53
2022-07-27T06:51:32.734Z,101308.94
2022-07-27T06:52:35.299Z,101308.28
2022-07-27T06:53:38.653Z,101317.59
2022-07-27T06:54:41.728Z,101308.81
2022-07-27T06:55:43.756Z,101307.56
2022-07-27T06:56:46.761Z,101312.28
2022-07-27T06:57:48.979Z,101312.44
2022-07-27T06:58:52.826Z,101303.66
2022-07-27T06:59:55.002Z,101306.50
2022-07-27T07:00:59.744Z,101313.13
2022-07-27T07:02:01.897Z,101310.81
2022-07-27T07:03:07.066Z,101313.88
2022-07-27T07:04:09.209Z,101302.03
2022-07-27T07:05:12.317Z,101312.59
2022-07-27T07:06:15.835Z,101313.44
2022-07-27T07:07:19.256Z,101308.03
2022-07-27T07:08:22.834Z,101306.38
2022-07-27T07:09:24.862Z,101312.59
2022-07-27T07:10:28.758Z,101307.44
2022-07-27T07:11:30.841Z,101311.97
2022-07-27T07:12:33.922Z,101311.19
2022-07-27T07:13:40.097Z,101308.50
2022-07-27T07:14:45.373Z,101315.75
2022-07-27T07:15:47.600Z,101310.13
2022-07-27T07:16:51.069Z,101309.06
2022-07-27T07:17:54.389Z,101314.22
2022-07-27T07:18:57.840Z,101316.72
2022-07-27T07:20:01.124Z,101318.97
2022-07-27T07:21:04.191Z,101313.94
2022-07-27T07:22:06.274Z,101312.88
2022-07-27T07:23:11.030Z,101320.06
2022-07-27T07:24:14.802Z,101323.38
2022-07-27T07:25:16.988Z,101322.13
2022-07-27T07:26:20.072Z,101329.75
2022-07-27T07:27:23.579Z,101320.97
2022-07-27T07:28:26.687Z,101322.41
2022-07-27T07:29:28.788Z,101322.16
2022-07-27T07:30:32.462Z,101318.78
2022-07-27T07:31:34.748Z,101320.44
2022-07-27T07:32:37.741Z,101337.00
2022-07-27T07:33:40.779Z,101328.69
2022-07-27T07:34:43.222Z,101330.09
2022-07-27T07:36:14.232Z,101324.47
2022-07-27T07:37:09.871Z,101329.41
2022-07-27T07:38:14.307Z,101330.00
2022-07-27T07:39:18.207Z,101320.63
2022-07-27T07:41:44.027Z,101321.97
2022-07-27T07:42:50.814Z,101318.03
2022-07-27T07:43:53.821Z,101315.47
2022-07-27T07:44:56.045Z,101318.28
2022-07-27T07:45:59.092Z,101321.13
2022-07-27T07:47:01.243Z,101315.03
2022-07-27T07:48:04.816Z,101316.00
2022-07-27T07:49:06.988Z,101321.53
2022-07-27T07:50:11.724Z,101324.94
2022-07-27T07:51:14.887Z,101313.22
2022-07-27T07:52:17.025Z,101326.84
2022-07-27T07:53:22.688Z,101337.78
2022-07-27T07:54:24.746Z,101326.88
2022-07-27T07:55:30.118Z,101318.63
2022-07-27T07:56:33.980Z,101318.28
2022-07-27T07:57:36.489Z,101326.06
2022-07-27T07:58:39.657Z,101325.13
2022-07-27T07:59:41.701Z,101335.00
2022-07-27T08:00:45.300Z,101332.44
2022-07-27T08:01:48.428Z,101336.81
2022-07-27T08:02:52.581Z,101335.16
2022-07-27T08:03:55.628Z,101331.03
2022-07-27T08:04:57.752Z,101330.66
2022-07-27T08:06:00.812Z,101335.94
2022-07-27T08:07:06.295Z,101334.19
2022-07-27T08:08:09.323Z,101336.19
2022-07-27T08:09:16.933Z,101338.75
2022-07-27T08:10:22.778Z,101340.75
2022-07-27T08:11:25.160Z,101348.72
2022-07-27T08:12:28.167Z,101350.22
2022-07-27T08:13:31.458Z,101353.88
2022-07-27T08:14:33.933Z,101341.06
2022-07-27T08:15:37.186Z,101351.50
2022-07-27T08:16:40.384Z,101355.47
2022-07-27T08:17:42.730Z,101352.19
2022-07-27T08:18:45.719Z,101353.00
2022-07-27T08:19:47.768Z,101352.78
2022-07-27T08:20:51.141Z,101359.63
2022-07-27T08:21:53.238Z,101357.28
2022-07-27T08:22:56.255Z,101365.50
2022-07-27T08:23:59.285Z,101362.09
2022-07-27T08:25:08.163Z,101356.22
2022-07-27T08:26:12.379Z,101362.38
2022-07-27T08:27:15.154Z,101360.63
2022-07-27T08:28:19.097Z,101361.53
2022-07-27T08:29:23.212Z,101359.56
2022-07-27T08:30:27.098Z,101373.22
2022-07-27T08:31:51.481Z,101369.78
2022-07-27T08:32:58.736Z,101377.03
2022-07-27T08:34:02.068Z,101377.97
2022-07-27T08:35:05.346Z,101373.72
2022-07-27T08:36:09.613Z,101386.78
2022-07-27T08:37:15.388Z,101366.31
2022-07-27T08:38:19.309Z,101373.59
2022-07-27T08:40:05.758Z,101369.03
2022-07-27T08:40:49.281Z,101375.84
2022-07-27T08:41:54.122Z,101374.78
2022-07-27T08:42:57.271Z,101378.34
2022-07-27T08:44:01.441Z,101369.75
2022-07-27T08:45:05.438Z,101369.75
2022-07-27T08:46:11.455Z,101371.97
2022-07-27T08:47:15.273Z,101370.66
2022-07-27T08:48:18.835Z,101358.78
2022-07-27T08:49:32.287Z,101365.59
2022-07-27T08:50:49.328Z,101372.44
2022-07-27T08:51:51.459Z,101367.63
2022-07-27T08:53:03.428Z,101359.84
2022-07-27T08:54:07.129Z,101367.50
2022-07-27T08:55:09.875Z,101369.72
2022-07-27T08:56:14.499Z,101363.00
2022-07-27T08:57:16.715Z,101367.72
2022-07-27T08:58:20.093Z,101362.41
2022-07-27T08:59:23.000Z,101373.34
2022-07-27T09:00:26.740Z,101371.78
2022-07-27T09:01:34.484Z,101365.91
2022-07-27T09:02:39.085Z,101363.78
2022-07-27T09:03:42.588Z,101373.31
2022-07-27T09:04:45.978Z,101374.50
2022-07-27T09:05:51.085Z,101356.94
2022-07-27T09:06:54.592Z,101354.31
2022-07-27T09:08:10.960Z,101368.44
2022-07-27T09:09:16.759Z,101363.03
2022-07-27T09:10:33.665Z,101367.13
2022-07-27T09:11:38.371Z,101356.09
2022-07-27T09:12:40.762Z,101356.78
2022-07-27T09:13:44.399Z,101362.88
2022-07-27T09:14:52.687Z,101363.06
2022-07-27T09:16:18.447Z,101366.81
2022-07-27T09:18:49.677Z,101375.72
2022-07-27T09:19:56.877Z,101368.38
2022-07-27T09:21:14.680Z,101370.75
2022-07-27T09:22:44.792Z,101373.38
2022-07-27T09:23:50.420Z,101365.16
2022-07-27T09:25:02.498Z,101378.13
2022-07-27T09:26:30.002Z,101372.72
2022-07-27T09:27:35.929Z,101372.72
2022-07-27T09:28:38.156Z,101371.41
2022-07-27T09:29:41.512Z,101376.31
2022-07-27T09:30:44.256Z,101372.06
2022-07-27T09:31:52.901Z,101372.16
2022-07-27T09:32:58.955Z,101368.97
2022-07-27T09:34:03.972Z,101374.13
2022-07-27T09:35:18.100Z,101367.19
2022-07-27T09:36:23.830Z,101378.03
2022-07-27T09:37:28.584Z,101384.25
2022-07-27T09:38:31.371Z,101376.59
2022-07-27T09:39:34.925Z,101381.44
2022-07-27T09:40:37.179Z,101380.31
2022-07-27T09:41:43.380Z,101380.78
2022-07-27T09:43:14.567Z,101381.03
2022-07-27T09:44:32.607Z,101376.06
2022-07-27T09:45:39.610Z,101378.44
2022-07-27T09:46:48.464Z,101369.28
2022-07-27T09:47:53.347Z,101372.22
2022-07-27T09:48:56.758Z,101382.56
2022-07-27T09:50:17.910Z,101378.00
2022-07-27T09:52:48.979Z,101380.84
2022-07-27T09:53:53.295Z,101376.13
2022-07-27T09:55:04.151Z,101382.53
2022-07-27T09:56:11.923Z,101381.84
2022-07-27T09:57:15.723Z,101382.81
2022-07-27T09:58:21.417Z,101382.13
2022-07-27T09:59:28.086Z,101386.34
2022-07-27T10:00:30.792Z,101380.00
2022-07-27T10:01:47.706Z,101382.38
2022-07-27T10:02:56.556Z,101384.50
2022-07-27T10:04:01.627Z,101388.25
2022-07-27T10:05:04.422Z,101385.53
2022-07-27T10:06:09.167Z,101392.38
2022-07-27T10:07:14.390Z,101379.44
2022-07-27T10:08:16.755Z,101383.28
2022-07-27T10:09:20.577Z,101385.75
2022-07-27T10:10:24.676Z,101375.03
2022-07-27T10:11:30.066Z,101375.41
2022-07-27T10:12:34.803Z,101382.81
2022-07-27T10:13:43.846Z,101373.63
2022-07-27T10:14:46.480Z,101373.63
2022-07-27T10:15:50.011Z,101380.66
2022-07-27T10:16:54.910Z,101371.97
2022-07-27T10:18:07.362Z,101387.41
2022-07-27T10:19:15.520Z,101384.34
2022-07-27T10:20:20.263Z,101374.69
2022-07-27T10:21:24.801Z,101376.56
2022-07-27T10:22:49.883Z,101371.97
2022-07-27T10:23:58.783Z,101390.94
2022-07-27T10:25:01.343Z,101377.75
2022-07-27T10:26:20.481Z,101380.66
2022-07-27T10:27:28.448Z,101375.19
2022-07-27T10:28:33.223Z,101389.03
2022-07-27T10:29:40.472Z,101377.38
2022-07-27T10:30:46.237Z,101379.75
2022-07-27T10:32:00.563Z,101379.13
2022-07-27T10:33:13.678Z,101384.09
2022-07-27T10:34:34.534Z,101382.44
2022-07-27T10:35:36.986Z,101392.22
2022-07-27T10:36:54.663Z,101386.44
2022-07-27T10:38:15.302Z,101390.19
2022-07-27T10:39:31.117Z,101386.94
2022-07-27T10:40:37.446Z,101381.25
2022-07-27T10:41:45.147Z,101386.81
2022-07-27T10:42:54.279Z,101384.50
2022-07-27T10:44:30.665Z,101382.75
2022-07-27T10:46:01.958Z,101395.53
2022-07-27T10:47:05.871Z,101398.16
2022-07-27T10:48:09.855Z,101395.59
2022-07-27T10:49:23.310Z,101390.56
2022-07-27T10:50:31.349Z,101397.78
2022-07-27T10:51:36.433Z,101398.75
2022-07-27T10:52:43.844Z,101395.16
2022-07-27T10:55:44.855Z,101390.34
2022-07-27T10:56:51.473Z,101380.81
2022-07-27T10:57:54.962Z,101389.75
2022-07-27T10:58:58.709Z,101391.41
2022-07-27T11:00:10.228Z,101390.69
2022-07-27T11:01:20.262Z,101404.31
2022-07-27T11:02:40.287Z,101382.97
2022-07-27T11:03:55.321Z,101385.19
2022-07-27T11:04:58.850Z,101391.19
2022-07-27T11:06:22.007Z,101383.63
2022-07-27T11:07:34.389Z,101396.72
2022-07-27T11:08:47.328Z,101385.03
2022-07-27T11:10:03.468Z,101392.91
2022-07-27T11:11:09.076Z,101391.88
2022-07-27T11:12:13.960Z,101388.91
2022-07-27T11:13:18.125Z,101400.59
2022-07-27T11:14:30.382Z,101417.44
2022-07-27T11:15:34.336Z,101409.56
2022-07-27T11:16:54.517Z,101413.56
2022-07-27T11:18:03.378Z,101417.81
2022-07-27T11:19:08.607Z,101413.38
2022-07-27T11:20:13.862Z,101418.13
2022-07-27T11:21:26.177Z,101415.34
2022-07-27T11:22:53.647Z,101404.72
2022-07-27T11:23:58.376Z,101413.09
2022-07-27T11:25:02.322Z,101418.53
2022-07-27T11:26:06.580Z,101413.94
2022-07-27T11:27:16.017Z,101415.00
2022-07-27T11:28:30.117Z,101423.13
2022-07-27T11:29:40.024Z,101419.28
2022-07-27T11:30:46.124Z,101423.28
2022-07-27T11:31:57.540Z,101412.94
2022-07-27T11:33:07.218Z,101428.59
2022-07-27T11:34:14.372Z,101413.16
2022-07-27T11:35:20.149Z,101409.88
2022-07-27T11:36:26.563Z,101411.50
2022-07-27T11:37:30.784Z,101418.84
2022-07-27T11:38:45.789Z,101413.16
2022-07-27T11:40:03.995Z,101421.06
2022-07-27T11:42:04.720Z,101416.78
2022-07-27T11:42:51.991Z,101426.66
2022-07-27T11:44:02.247Z,101417.22
2022-07-27T11:45:05.180Z,101426.50
2022-07-27T11:46:16.458Z,101424.72
2022-07-27T11:47:24.274Z,101430.69
2022-07-27T11:48:38.967Z,101428.31
2022-07-27T11:49:50.100Z,101426.19
2022-07-27T11:50:58.234Z,101431.03
2022-07-27T11:52:02.975Z,101426.09
2022-07-27T11:53:06.610Z,101430.41
2022-07-27T11:54:12.049Z,101425.44
2022-07-27T11:55:15.464Z,101430.53
2022-07-27T11:56:24.912Z,101429.13
2022-07-27T11:57:33.120Z,101425.59
2022-07-27T11:59:01.594Z,101426.91
2022-07-27T12:00:06.068Z,101424.44
2022-07-27T12:01:27.408Z,101427.41
2022-07-27T12:02:32.349Z,101423.84
2022-07-27T12:03:47.182Z,101425.97
2022-07-27T12:05:00.516Z,101421.66
2022-07-27T12:06:06.727Z,101428.34
2022-07-27T12:07:14.088Z,101420.47
2022-07-27T12:08:18.885Z,101424.50
2022-07-27T12:09:22.324Z,101427.66
2022-07-27T12:10:25.718Z,101432.75
2022-07-27T12:11:34.328Z,101423.47
2022-07-27T12:12:38.916Z,101441.03
2022-07-27T12:13:41.035Z,101452.00
2022-07-27T12:14:47.089Z,101438.94
2022-07-27T12:15:57.495Z,101445.34
2022-07-27T12:17:16.379Z,101440.84
2022-07-27T12:18:21.989Z,101446.75
2022-07-27T12:19:25.675Z,101447.50
2022-07-27T12:20:34.988Z,101446.91
2022-07-27T12:21:37.176Z,101440.66
2022-07-27T12:22:44.464Z,101439.59
2022-07-27T12:23:52.561Z,101448.28
2022-07-27T12:24:59.175Z,101443.22
2022-07-27T12:26:20.602Z,101442.53
2022-07-27T12:27:23.722Z,101441.19
2022-07-27T12:28:28.076Z,101443.09